createdAt,value
2018-01-04T00:01:20.548Z,23.77
2018-01-04T00:03:49.603Z,17.07
2018-01-04T00:06:18.791Z,18.70
2018-01-04T00:08:47.089Z,26.40
2018-01-04T00:11:15.411Z,36.17
2018-01-04T00:13:43.691Z,24.97
2018-01-04T00:16:11.979Z,29.00
2018-01-04T00:18:40.377Z,13.13
2018-01-04T00:21:08.742Z,31.87
2018-01-04T00:23:37.181Z,34.63
2018-01-04T00:26:05.567Z,28.20
2018-01-04T00:28:33.855Z,34.70
2018-01-04T00:31:02.172Z,37.47
2018-01-04T00:33:30.550Z,36.13
2018-01-04T00:35:59.647Z,20.80
2018-01-04T00:38:27.943Z,26.43
2018-01-04T00:40:56.259Z,29.00
2018-01-04T00:43:24.556Z,33.30
2018-01-04T00:45:52.868Z,14.60
2018-01-04T00:48:21.197Z,30.87
2018-01-04T00:50:49.492Z,38.63
2018-01-04T00:53:17.775Z,27.37
2018-01-04T00:55:46.086Z,29.77
2018-01-04T00:58:15.143Z,42.50
2018-01-04T01:00:43.464Z,31.13
2018-01-04T01:03:11.784Z,37.00
2018-01-04T01:05:40.844Z,27.63
2018-01-04T01:08:09.140Z,32.53
2018-01-04T01:10:37.422Z,25.67
2018-01-04T01:13:05.712Z,17.97
2018-01-04T01:15:34.141Z,31.77
2018-01-04T01:18:03.260Z,27.00
2018-01-04T01:20:32.316Z,25.60
2018-01-04T01:23:00.608Z,22.87
2018-01-04T01:25:29.479Z,27.93
2018-01-04T01:27:57.804Z,26.70
2018-01-04T01:30:26.088Z,25.37
2018-01-04T01:32:54.377Z,36.37
2018-01-04T01:35:22.678Z,42.67
2018-01-04T01:37:50.966Z,28.00
2018-01-04T01:40:19.279Z,23.00
2018-01-04T01:42:47.585Z,27.73
2018-01-04T01:45:16.638Z,35.23
2018-01-04T01:47:44.931Z,28.43
2018-01-04T01:50:13.226Z,28.60
2018-01-04T01:52:41.546Z,24.83
2018-01-04T01:55:09.913Z,27.73
2018-01-04T01:57:38.218Z,34.73
2018-01-04T02:00:06.529Z,28.20
2018-01-04T02:02:34.831Z,38.20
2018-01-04T02:05:03.926Z,26.17
2018-01-04T02:07:32.222Z,24.17
2018-01-04T02:10:00.530Z,31.00
2018-01-04T02:12:28.815Z,35.60
2018-01-04T02:14:57.232Z,33.90
2018-01-04T02:17:25.558Z,28.53
2018-01-04T02:20:05.527Z,26.77
2018-01-04T02:22:45.694Z,33.03
2018-01-04T02:25:25.711Z,55.43
2018-01-04T02:28:05.964Z,26.00
2018-01-04T02:30:46.708Z,26.33
2018-01-04T02:33:27.416Z,32.30
2018-01-04T02:36:08.151Z,40.40
2018-01-04T02:38:47.909Z,38.47
2018-01-04T02:41:28.447Z,26.50
2018-01-04T02:43:59.448Z,35.03
2018-01-04T02:46:27.505Z,40.67
2018-01-04T02:48:55.543Z,28.77
2018-01-04T02:51:23.628Z,37.37
2018-01-04T02:53:51.681Z,51.03
2018-01-04T02:56:20.492Z,47.53
2018-01-04T02:58:48.544Z,28.93
2018-01-04T03:01:16.600Z,33.17
2018-01-04T03:03:44.644Z,34.40
2018-01-04T03:06:12.701Z,34.60
2018-01-04T03:08:40.747Z,25.63
2018-01-04T03:11:08.786Z,33.23
2018-01-04T03:13:37.604Z,31.00
2018-01-04T03:16:05.668Z,37.47
2018-01-04T03:18:34.486Z,35.23
2018-01-04T03:21:02.543Z,21.53
2018-01-04T03:23:36.267Z,38.37
2018-01-04T03:26:10.645Z,30.80
2018-01-04T03:28:44.257Z,30.90
2018-01-04T03:31:17.986Z,28.00
2018-01-04T03:33:51.657Z,32.43
2018-01-04T03:36:26.016Z,25.30
2018-01-04T03:38:59.606Z,27.37
2018-01-04T03:41:33.324Z,24.17
2018-01-04T03:44:07.827Z,34.17
2018-01-04T03:46:41.432Z,18.97
2018-01-04T03:49:15.150Z,47.03
2018-01-04T03:51:48.866Z,38.27
2018-01-04T03:54:22.450Z,35.17
2018-01-04T03:56:56.167Z,31.93
2018-01-04T03:59:29.936Z,41.97
2018-01-04T04:02:03.664Z,24.23
2018-01-04T04:04:37.372Z,39.43
2018-01-04T04:07:11.096Z,36.40
2018-01-04T04:09:39.138Z,29.10
2018-01-04T04:12:07.190Z,34.27
2018-01-04T04:14:35.256Z,44.40
2018-01-04T04:17:03.325Z,30.93
2018-01-04T04:19:31.376Z,56.30
2018-01-04T04:21:59.454Z,59.17
2018-01-04T04:24:27.507Z,39.70
2018-01-04T04:26:55.549Z,36.97
2018-01-04T04:29:23.597Z,50.30
2018-01-04T04:31:51.646Z,31.83
2018-01-04T04:34:20.491Z,31.13
2018-01-04T04:36:48.538Z,34.23
2018-01-04T04:39:17.355Z,43.83
2018-01-04T04:41:45.407Z,46.57
2018-01-04T04:44:14.234Z,26.70
2018-01-04T04:46:42.308Z,33.20
2018-01-04T04:49:11.111Z,34.60
2018-01-04T04:51:39.937Z,47.80
2018-01-04T04:54:07.989Z,31.80
2018-01-04T04:56:36.053Z,35.20
2018-01-04T04:59:04.256Z,40.53
2018-01-04T05:01:32.336Z,46.17
2018-01-04T05:04:00.404Z,24.10
2018-01-04T05:06:28.447Z,36.17
2018-01-04T05:08:56.508Z,32.90
2018-01-04T05:11:25.367Z,39.13
2018-01-04T05:13:53.408Z,23.37
2018-01-04T05:16:21.460Z,27.67
2018-01-04T05:18:49.506Z,25.67
2018-01-04T05:21:17.561Z,20.83
2018-01-04T05:23:45.630Z,20.43
2018-01-04T05:26:14.455Z,30.57
2018-01-04T05:28:42.498Z,41.93
2018-01-04T05:31:10.580Z,33.83
2018-01-04T05:33:38.627Z,24.67
2018-01-04T05:36:06.707Z,23.57
2018-01-04T05:38:34.804Z,23.70
2018-01-04T05:41:02.863Z,22.87
2018-01-04T05:43:30.915Z,23.47
2018-01-04T05:45:59.745Z,30.00
2018-01-04T05:48:27.838Z,31.03
2018-01-04T05:50:55.887Z,24.00
2018-01-04T05:53:24.716Z,31.60
2018-01-04T05:55:52.790Z,23.70
2018-01-04T05:58:21.599Z,37.90
2018-01-04T06:00:49.655Z,26.37
2018-01-04T06:03:18.486Z,24.80
2018-01-04T06:05:46.537Z,16.23
2018-01-04T06:08:14.628Z,29.50
2018-01-04T06:10:43.444Z,55.93
2018-01-04T06:13:12.263Z,37.63
2018-01-04T06:15:40.318Z,28.67
2018-01-04T06:18:09.142Z,40.30
2018-01-04T06:20:37.995Z,38.60
2018-01-04T06:25:40.399Z,20.53
2018-01-04T06:28:08.447Z,14.13
2018-01-04T06:30:36.487Z,15.13
2018-01-04T06:33:04.550Z,27.17
2018-01-04T06:35:32.596Z,27.67
2018-01-04T06:38:00.797Z,16.57
2018-01-04T06:40:28.865Z,27.10
2018-01-04T06:42:56.924Z,24.20
2018-01-04T06:45:24.972Z,21.67
2018-01-04T06:47:53.014Z,22.27
2018-01-04T06:50:21.831Z,66.47
2018-01-04T06:52:49.912Z,37.17
2018-01-04T06:55:17.965Z,36.00
2018-01-04T06:57:46.013Z,42.07
2018-01-04T07:00:14.076Z,45.90
2018-01-04T07:02:42.114Z,57.07
2018-01-04T07:05:10.296Z,37.60
2018-01-04T07:07:38.357Z,45.43
2018-01-04T07:10:06.406Z,28.57
2018-01-04T07:12:34.479Z,33.57
2018-01-04T07:15:03.295Z,37.63
2018-01-04T07:17:31.398Z,44.63
2018-01-04T07:19:59.494Z,35.13
2018-01-04T07:22:27.559Z,35.10
2018-01-04T07:24:55.629Z,29.07
2018-01-04T07:27:23.701Z,30.53
2018-01-04T07:29:52.531Z,27.30
2018-01-04T07:32:20.593Z,24.47
2018-01-04T07:34:48.866Z,34.13
2018-01-04T07:37:17.683Z,32.90
2018-01-04T07:39:46.506Z,29.13
2018-01-04T07:42:14.832Z,17.13
2018-01-04T07:44:43.889Z,17.97
2018-01-04T07:47:12.180Z,12.17
2018-01-04T07:49:40.491Z,12.03
2018-01-04T07:52:08.809Z,15.50
2018-01-04T07:54:37.875Z,11.60
2018-01-04T07:57:06.200Z,24.37
2018-01-04T07:59:34.546Z,38.10
2018-01-04T08:02:02.899Z,31.53
2018-01-04T08:04:31.202Z,34.57
2018-01-04T08:06:59.571Z,45.27
2018-01-04T08:09:27.891Z,39.03
2018-01-04T08:11:56.192Z,35.37
2018-01-04T08:14:24.524Z,39.10
2018-01-04T08:16:52.836Z,50.67
2018-01-04T08:19:21.913Z,34.87
2018-01-04T08:21:50.219Z,31.23
2018-01-04T08:24:18.517Z,38.83
2018-01-04T08:26:47.609Z,35.07
2018-01-04T08:29:15.930Z,25.93
2018-01-04T08:31:44.993Z,37.73
2018-01-04T08:34:13.298Z,44.53
2018-01-04T08:36:42.388Z,30.90
2018-01-04T08:39:10.690Z,45.27
2018-01-04T08:41:38.997Z,36.87
2018-01-04T08:46:32.415Z,43.80
2018-01-04T08:49:01.544Z,40.07
2018-01-04T08:51:29.859Z,42.20
2018-01-04T08:53:58.161Z,34.10
2018-01-04T08:56:26.466Z,38.30
2018-01-04T08:58:54.759Z,27.90
2018-01-04T09:01:23.104Z,32.20
2018-01-04T09:03:51.388Z,41.10
2018-01-04T09:06:20.021Z,37.23
2018-01-04T09:08:48.330Z,49.80
2018-01-04T09:11:16.625Z,43.70
2018-01-04T09:13:44.953Z,29.77
2018-01-04T09:16:13.268Z,59.23
2018-01-04T09:18:42.333Z,35.27
2018-01-04T09:21:11.400Z,31.73
2018-01-04T09:23:39.746Z,38.43
2018-01-04T09:26:08.082Z,25.73
2018-01-04T09:28:36.406Z,31.10
2018-01-04T09:31:04.739Z,45.40
2018-01-04T09:33:33.034Z,28.17
2018-01-04T09:36:01.335Z,29.63
2018-01-04T09:38:29.709Z,31.07
2018-01-04T09:40:58.796Z,22.50
2018-01-04T09:43:27.129Z,34.17
2018-01-04T09:45:56.237Z,33.37
2018-01-04T09:48:24.547Z,45.23
2018-01-04T09:50:52.862Z,27.43
2018-01-04T09:53:21.950Z,25.70
2018-01-04T09:55:50.250Z,25.37
2018-01-04T09:58:19.328Z,47.00
2018-01-04T10:00:47.629Z,26.53
2018-01-04T10:03:15.927Z,38.80
2018-01-04T10:05:44.225Z,23.83
2018-01-04T10:10:53.203Z,27.23
2018-01-04T10:13:22.259Z,28.33
2018-01-04T10:15:50.560Z,28.20
2018-01-04T10:18:18.881Z,28.87
2018-01-04T10:20:47.176Z,29.40
2018-01-04T10:23:15.470Z,30.10
2018-01-04T10:25:44.547Z,43.03
2018-01-04T10:28:12.855Z,33.87
2018-01-04T10:30:41.159Z,33.20
2018-01-04T10:33:09.471Z,21.83
2018-01-04T10:35:37.763Z,32.03
2018-01-04T10:38:06.093Z,19.73
2018-01-04T10:40:34.455Z,30.40
2018-01-04T10:43:02.854Z,30.67
2018-01-04T10:45:31.217Z,22.83
2018-01-04T10:47:59.543Z,31.20
2018-01-04T10:50:28.617Z,22.73
2018-01-04T10:52:57.692Z,15.90
2018-01-04T10:55:25.997Z,24.90
2018-01-04T10:57:54.333Z,16.17
2018-01-04T11:00:23.396Z,18.80
2018-01-04T11:02:51.689Z,18.80
2018-01-04T11:05:19.976Z,25.00
2018-01-04T11:07:48.293Z,16.00
2018-01-04T11:10:17.394Z,19.50
2018-01-04T11:12:45.744Z,22.23
2018-01-04T11:15:14.027Z,11.60
2018-01-04T11:17:42.319Z,4.40
2018-01-04T11:20:10.714Z,10.63
2018-01-04T11:22:39.003Z,4.10
2018-01-04T11:25:07.322Z,4.13
2018-01-04T11:27:36.386Z,4.40
2018-01-04T11:30:04.693Z,4.90
2018-01-04T11:32:33.020Z,3.00
2018-01-04T11:35:02.099Z,1.10
2018-01-04T11:37:30.404Z,1.20
2018-01-04T11:39:59.477Z,5.67
2018-01-04T11:42:27.781Z,2.70
2018-01-04T11:44:56.111Z,4.63
2018-01-04T11:47:25.156Z,2.30
2018-01-04T11:49:53.472Z,2.17
2018-01-04T11:52:21.813Z,4.43
2018-01-04T11:54:50.083Z,2.97
2018-01-04T11:57:19.140Z,1.93
2018-01-04T11:59:47.435Z,5.70
2018-01-04T12:02:15.771Z,8.63
2018-01-04T12:04:44.832Z,2.67
2018-01-04T12:07:13.146Z,3.40
2018-01-04T12:09:41.424Z,0.60
2018-01-04T12:12:09.723Z,4.57
2018-01-04T12:14:38.013Z,0.60
2018-01-04T12:17:07.069Z,2.67
2018-01-04T12:19:35.419Z,0.50
2018-01-04T12:22:03.707Z,1.30
2018-01-04T12:24:32.011Z,1.23
2018-01-04T12:27:00.313Z,0.73
2018-01-04T12:29:29.395Z,1.27
2018-01-04T12:31:57.781Z,1.80
2018-01-04T12:34:26.121Z,0.40
2018-01-04T12:36:54.420Z,1.90
2018-01-04T12:39:22.707Z,0.50
2018-01-04T12:41:51.018Z,0.70
2018-01-04T12:44:19.373Z,0.57
2018-01-04T12:46:48.424Z,3.33
2018-01-04T12:49:16.722Z,3.17
2018-01-04T12:51:45.015Z,1.70
2018-01-04T12:54:13.312Z,0.83
2018-01-04T12:56:41.650Z,0.70
2018-01-04T12:59:09.962Z,0.50
2018-01-04T13:01:39.032Z,0.67
2018-01-04T13:04:08.104Z,1.70
2018-01-04T13:06:36.422Z,0.60
2018-01-04T13:09:05.546Z,2.33
2018-01-04T13:11:33.859Z,0.67
2018-01-04T13:14:02.162Z,0.50
2018-01-04T13:16:30.471Z,1.17
2018-01-04T13:18:59.595Z,0.50
2018-01-04T13:21:27.920Z,2.00
2018-01-04T13:23:56.231Z,1.57
2018-01-04T13:26:24.519Z,0.50
2018-01-04T13:28:53.579Z,0.43
2018-01-04T13:31:22.622Z,0.50
2018-01-04T13:33:50.961Z,0.50
2018-01-04T13:36:19.304Z,0.50
2018-01-04T13:38:47.643Z,0.50
2018-01-04T13:41:15.945Z,0.60
2018-01-04T13:43:44.253Z,2.10
2018-01-04T13:46:13.339Z,0.77
2018-01-04T13:48:41.647Z,0.50
2018-01-04T13:51:10.698Z,0.60
2018-01-04T13:53:39.018Z,0.50
2018-01-04T13:56:07.369Z,0.57
2018-01-04T13:58:35.689Z,0.60
2018-01-04T14:01:05.562Z,0.60
2018-01-04T14:03:33.904Z,0.53
2018-01-04T14:06:02.203Z,0.73
2018-01-04T14:08:30.547Z,0.50
2018-01-04T14:10:58.866Z,0.50
2018-01-04T14:13:28.012Z,1.07
2018-01-04T14:15:56.332Z,0.50
2018-01-04T14:18:24.639Z,0.50
2018-01-04T14:20:52.954Z,0.57
2018-01-04T14:23:21.294Z,1.57
2018-01-04T14:25:50.388Z,0.50
2018-01-04T14:28:19.504Z,0.40
2018-01-04T14:30:48.625Z,0.40
2018-01-04T14:33:16.914Z,0.40
2018-01-04T14:35:45.971Z,0.50
2018-01-04T14:38:14.295Z,0.40
2018-01-04T14:40:43.356Z,0.50
2018-01-04T14:43:11.657Z,0.40
2018-01-04T14:45:39.971Z,0.50
2018-01-04T14:48:08.275Z,0.40
2018-01-04T14:50:37.484Z,0.50
2018-01-04T14:53:06.597Z,0.40
2018-01-04T14:55:34.907Z,0.50
2018-01-04T14:58:03.960Z,0.50
2018-01-04T15:00:32.262Z,0.40
2018-01-04T15:03:01.499Z,0.50
2018-01-04T15:05:30.653Z,0.60
2018-01-04T15:07:59.277Z,0.50
2018-01-04T15:10:28.424Z,0.40
2018-01-04T15:12:57.496Z,0.40
2018-01-04T15:15:25.823Z,0.40
2018-01-04T15:17:54.904Z,0.40
2018-01-04T15:20:23.198Z,0.40
2018-01-04T15:22:51.495Z,0.50
2018-01-04T15:25:20.649Z,0.47
2018-01-04T15:27:48.987Z,0.40
2018-01-04T15:30:17.284Z,0.40
2018-01-04T15:32:47.062Z,0.30
2018-01-04T15:35:15.352Z,0.40
2018-01-04T15:37:43.660Z,1.23
2018-01-04T15:40:11.943Z,0.50
2018-01-04T15:42:40.263Z,0.40
2018-01-04T15:45:08.595Z,0.40
2018-01-04T15:47:36.894Z,0.40
2018-01-04T15:50:05.957Z,0.50
2018-01-04T15:52:34.257Z,0.40
2018-01-04T15:55:02.674Z,0.40
2018-01-04T15:57:31.866Z,0.40
2018-01-04T16:00:01.003Z,0.70
2018-01-04T16:02:29.353Z,0.50
2018-01-04T16:04:58.405Z,0.70
2018-01-04T16:07:26.692Z,1.00
2018-01-04T16:09:54.999Z,0.40
2018-01-04T16:12:23.305Z,0.47
2018-01-04T16:14:51.589Z,0.60
2018-01-04T16:17:19.894Z,0.60
2018-01-04T16:19:48.183Z,0.60
2018-01-04T16:22:16.512Z,0.70
2018-01-04T16:24:45.568Z,0.60
2018-01-04T16:27:13.884Z,0.93
2018-01-04T16:29:42.156Z,1.27
2018-01-04T16:32:10.456Z,3.67
2018-01-04T16:34:38.778Z,3.80
2018-01-04T16:37:07.840Z,3.60
2018-01-04T16:39:36.134Z,6.83
2018-01-04T16:42:04.516Z,6.37
2018-01-04T16:44:32.858Z,10.60
2018-01-04T16:47:01.955Z,13.10
2018-01-04T16:49:31.042Z,10.47
2018-01-04T16:51:59.365Z,9.30
2018-01-04T16:54:27.670Z,23.07
2018-01-04T16:56:55.967Z,12.23
2018-01-04T16:59:24.289Z,30.47
2018-01-04T17:01:52.585Z,17.57
2018-01-04T17:04:20.879Z,16.33
2018-01-04T17:06:49.168Z,11.50
2018-01-04T17:09:17.466Z,23.27
2018-01-04T17:11:45.784Z,9.40
2018-01-04T17:14:14.836Z,12.97
2018-01-04T17:16:43.128Z,26.23
2018-01-04T17:19:11.427Z,17.03
2018-01-04T17:21:39.720Z,14.40
2018-01-04T17:24:08.057Z,19.30
2018-01-04T17:26:37.163Z,16.17
2018-01-04T17:29:05.483Z,20.17
2018-01-04T17:31:33.799Z,23.97
2018-01-04T17:34:02.103Z,17.03
2018-01-04T17:36:30.408Z,28.77
2018-01-04T17:38:59.488Z,17.63
2018-01-04T17:41:27.901Z,22.30
2018-01-04T17:43:56.191Z,12.80
2018-01-04T17:46:24.486Z,11.17
2018-01-04T17:48:52.770Z,19.93
2018-01-04T17:51:21.861Z,31.23
2018-01-04T17:53:50.164Z,22.97
2018-01-04T17:56:19.219Z,21.00
2018-01-04T17:58:47.579Z,31.13
2018-01-04T18:01:16.718Z,23.70
2018-01-04T18:03:45.027Z,15.50
2018-01-04T18:06:13.411Z,22.90
2018-01-04T18:08:41.797Z,17.63
2018-01-04T18:11:10.235Z,21.30
2018-01-04T18:13:38.614Z,17.13
2018-01-04T18:16:06.997Z,21.43
2018-01-04T18:18:35.318Z,32.83
2018-01-04T18:21:03.631Z,21.83
2018-01-04T18:23:32.725Z,24.87
2018-01-04T18:26:01.044Z,20.43
2018-01-04T18:28:29.364Z,23.43
2018-01-04T18:30:57.642Z,22.33
2018-01-04T18:33:25.951Z,15.70
2018-01-04T18:35:54.295Z,17.93
2018-01-04T18:38:22.587Z,17.87
2018-01-04T18:40:50.880Z,22.87
2018-01-04T18:43:19.174Z,17.40
2018-01-04T18:45:47.470Z,17.73
2018-01-04T18:48:15.809Z,20.17
2018-01-04T18:50:44.101Z,16.57
2018-01-04T18:53:13.186Z,23.57
2018-01-04T18:55:41.494Z,20.33
2018-01-04T18:58:09.785Z,15.00
2018-01-04T19:00:38.116Z,20.80
2018-01-04T19:03:06.470Z,21.43
2018-01-04T19:05:34.764Z,21.23
2018-01-04T19:08:03.169Z,16.00
2018-01-04T19:10:32.245Z,23.83
2018-01-04T19:13:00.680Z,27.37
2018-01-04T19:15:29.010Z,18.83
2018-01-04T19:17:57.330Z,23.20
2018-01-04T19:20:25.612Z,22.33
2018-01-04T19:22:54.202Z,20.73
2018-01-04T19:25:23.321Z,28.97
2018-01-04T19:27:51.673Z,27.50
2018-01-04T19:30:20.000Z,24.13
2018-01-04T19:32:48.332Z,21.00
2018-01-04T19:35:17.391Z,25.87
2018-01-04T19:37:45.699Z,28.90
2018-01-04T19:40:13.989Z,27.87
2018-01-04T19:42:43.111Z,29.40
2018-01-04T19:45:12.587Z,20.63
2018-01-04T19:47:40.984Z,19.37
2018-01-04T19:50:10.049Z,46.00
2018-01-04T19:52:39.128Z,24.47
2018-01-04T19:55:07.423Z,16.20
2018-01-04T19:57:35.751Z,21.57
2018-01-04T20:00:04.074Z,11.73
2018-01-04T20:02:32.398Z,24.20
2018-01-04T20:05:00.725Z,18.50
2018-01-04T20:07:29.015Z,19.63
2018-01-04T20:09:57.308Z,8.43
2018-01-04T20:12:25.594Z,21.47
2018-01-04T20:14:53.916Z,19.30
2018-01-04T20:17:22.256Z,25.53
2018-01-04T20:19:51.308Z,17.93
2018-01-04T20:22:19.603Z,17.83
2018-01-04T20:24:47.951Z,21.40
2018-01-04T20:27:16.289Z,14.13
2018-01-04T20:29:44.588Z,23.00
2018-01-04T20:32:12.890Z,31.90
2018-01-04T20:34:41.195Z,29.27
2018-01-04T20:37:10.250Z,19.63
2018-01-04T20:39:38.710Z,27.33
2018-01-04T20:42:07.767Z,22.70
2018-01-04T20:44:36.075Z,28.33
2018-01-04T20:47:04.384Z,58.60
2018-01-04T20:49:33.450Z,36.63
2018-01-04T20:52:01.875Z,33.50
2018-01-04T20:54:30.181Z,29.73
2018-01-04T20:56:59.284Z,28.47
2018-01-04T20:59:28.344Z,28.93
2018-01-04T21:01:56.684Z,35.07
2018-01-04T21:04:25.746Z,34.33
2018-01-04T21:06:54.048Z,28.50
2018-01-04T21:09:22.343Z,24.33
2018-01-04T21:11:50.627Z,22.47
2018-01-04T21:14:18.944Z,31.07
2018-01-04T21:16:48.016Z,24.47
2018-01-04T21:19:16.349Z,15.00
2018-01-04T21:21:44.642Z,21.03
2018-01-04T21:24:13.716Z,26.03
2018-01-04T21:26:42.018Z,22.03
2018-01-04T21:29:10.326Z,26.17
2018-01-04T21:31:38.684Z,30.47
2018-01-04T21:34:07.008Z,26.63
2018-01-04T21:36:36.106Z,20.50
2018-01-04T21:39:04.418Z,14.20
2018-01-04T21:41:33.488Z,24.67
2018-01-04T21:44:02.588Z,10.47
2018-01-04T21:46:31.008Z,22.60
2018-01-04T21:48:59.296Z,31.60
2018-01-04T21:51:27.596Z,18.93
2018-01-04T21:53:56.706Z,29.20
2018-01-04T21:56:25.030Z,25.90
2018-01-04T21:58:53.349Z,22.40
2018-01-04T22:01:21.658Z,19.70
2018-01-04T22:03:49.951Z,18.37
2018-01-04T22:06:18.281Z,22.80
2018-01-04T22:08:46.595Z,17.13
2018-01-04T22:11:14.894Z,24.40
2018-01-04T22:13:43.187Z,17.50
2018-01-04T22:16:11.481Z,17.43
2018-01-04T22:18:39.802Z,9.00
2018-01-04T22:21:08.093Z,22.70
2018-01-04T22:23:36.378Z,29.67
2018-01-04T22:26:04.707Z,13.90
2018-01-04T22:28:33.015Z,19.70
2018-01-04T22:31:01.372Z,29.07
2018-01-04T22:36:05.079Z,24.57
2018-01-04T22:38:33.372Z,14.70
2018-01-04T22:41:01.664Z,23.80
2018-01-04T22:43:29.974Z,22.00
2018-01-04T22:45:58.298Z,16.83
2018-01-04T22:48:26.632Z,13.63
2018-01-04T22:50:54.911Z,23.73
2018-01-04T22:53:23.264Z,11.83
2018-01-04T22:55:51.594Z,15.60
2018-01-04T22:58:19.886Z,12.83
2018-01-04T23:00:48.972Z,16.63
2018-01-04T23:03:17.262Z,13.40
2018-01-04T23:05:45.574Z,7.07
2018-01-04T23:08:13.864Z,8.30
2018-01-04T23:10:42.934Z,10.33
2018-01-04T23:13:11.277Z,12.10
2018-01-04T23:15:39.577Z,9.17
2018-01-04T23:18:07.888Z,23.83
2018-01-04T23:20:36.948Z,8.47
2018-01-04T23:23:05.245Z,19.83
2018-01-04T23:25:33.566Z,13.53
2018-01-04T23:28:02.663Z,18.23
2018-01-04T23:30:30.971Z,15.50
2018-01-04T23:33:00.102Z,12.73
2018-01-04T23:35:28.396Z,12.67
2018-01-04T23:37:56.696Z,10.40
2018-01-04T23:40:24.975Z,15.10
2018-01-04T23:42:53.270Z,12.50
2018-01-04T23:45:21.689Z,11.47
2018-01-04T23:47:49.990Z,9.63
2018-01-04T23:50:18.279Z,17.97
2018-01-04T23:52:46.582Z,10.27
2018-01-04T23:55:14.875Z,6.93
2018-01-04T23:57:43.298Z,14.40
